Time;durP1;ratioP1;P1;durP2;ratioP2;P2;SDS_P1;SDS_P2;PMS_P1;PMS_P2;Temp;Humidity;BMP_temperature;BMP_pressure;BME280_temperature;BME280_humidity;BME280_pressure;Samples;Min_cycle;Max_cycle;Signal;HPM_P1;HPM_P2
2023/12/04 00:01:27;;;;;;;;;;;19.20;51.50;;;;;;5074256;28;19920;-62
2023/12/04 00:03:53;;;;;;;;;;;19.20;51.50;;;;;;5069164;28;20380;-62
2023/12/04 00:06:18;;;;;;;;;;;19.20;51.40;;;;;;5065870;28;19970;-62
2023/12/04 00:08:44;;;;;;;;;;;19.20;51.50;;;;;;5057011;28;20292;-62
2023/12/04 00:11:09;;;;;;;;;;;19.20;51.50;;;;;;5074728;28;19931;-62
2023/12/04 00:13:35;;;;;;;;;;;19.20;51.50;;;;;;5057731;28;19925;-62
2023/12/04 00:16:00;;;;;;;;;;;19.10;51.40;;;;;;5063622;28;19924;-62
2023/12/04 00:18:26;;;;;;;;;;;19.10;51.30;;;;;;5075020;28;20380;-62
2023/12/04 00:20:52;;;;;;;;;;;19.10;51.30;;;;;;5075325;28;19931;-62
2023/12/04 00:23:17;;;;;;;;;;;19.10;51.30;;;;;;5057740;28;20387;-61
2023/12/04 00:25:43;;;;;;;;;;;19.10;51.20;;;;;;5051850;28;20369;-61
2023/12/04 00:28:08;;;;;;;;;;;19.10;51.30;;;;;;5057242;28;20019;-62
2023/12/04 00:30:34;;;;;;;;;;;19.10;51.20;;;;;;5057771;28;19978;-62
2023/12/04 00:33:00;;;;;;;;;;;19.10;51.20;;;;;;5074863;28;20376;-62
2023/12/04 00:35:25;;;;;;;;;;;19.00;51.20;;;;;;5057424;28;19924;-62
2023/12/04 00:37:51;;;;;;;;;;;19.10;51.20;;;;;;5056849;28;20328;-62
2023/12/04 00:40:16;;;;;;;;;;;19.00;51.20;;;;;;5057328;28;19931;-63
2023/12/04 00:42:42;;;;;;;;;;;19.00;51.10;;;;;;5075253;28;19924;-63
2023/12/04 00:45:08;;;;;;;;;;;19.00;51.20;;;;;;5073415;28;19979;-63
2023/12/04 00:47:33;;;;;;;;;;;19.00;51.90;;;;;;5056825;28;19924;-63
2023/12/04 00:49:58;;;;;;;;;;;19.00;51.10;;;;;;5074932;28;19928;-63
2023/12/04 00:52:24;;;;;;;;;;;19.00;51.10;;;;;;5074539;28;19932;-63
2023/12/04 00:54:49;;;;;;;;;;;18.90;51.10;;;;;;5057191;28;19928;-63
2023/12/04 00:57:15;;;;;;;;;;;19.00;51.20;;;;;;5075177;28;19924;-63
2023/12/04 00:59:41;;;;;;;;;;;18.90;51.20;;;;;;5056606;28;20384;-63
2023/12/04 01:02:06;;;;;;;;;;;18.90;51.10;;;;;;5056736;28;19924;-63
2023/12/04 01:04:32;;;;;;;;;;;18.90;51.10;;;;;;5075253;28;19932;-63
2023/12/04 01:06:57;;;;;;;;;;;18.90;51.10;;;;;;5056304;28;19931;-63
2023/12/04 01:09:24;;;;;;;;;;;18.90;51.00;;;;;;5056444;28;20399;-63
2023/12/04 01:11:53;;;;;;;;;;;18.90;51.10;;;;;;5074300;28;19925;-63
2023/12/04 01:14:19;;;;;;;;;;;18.90;51.10;;;;;;5073824;28;19934;-63
2023/12/04 01:16:44;;;;;;;;;;;18.80;51.00;;;;;;5075037;28;19925;-63
2023/12/04 01:19:10;;;;;;;;;;;18.80;51.00;;;;;;5057179;28;19968;-63
2023/12/04 01:21:35;;;;;;;;;;;18.80;50.90;;;;;;5074395;28;19999;-63
2023/12/04 01:24:00;;;;;;;;;;;18.80;50.90;;;;;;5056350;28;19986;-63
2023/12/04 01:26:26;;;;;;;;;;;18.80;50.90;;;;;;5074120;28;19939;-63
2023/12/04 01:28:51;;;;;;;;;;;18.80;50.90;;;;;;5073681;28;19928;-63
2023/12/04 01:31:17;;;;;;;;;;;18.80;51.00;;;;;;5074898;28;19924;-63
2023/12/04 01:33:42;;;;;;;;;;;18.80;50.90;;;;;;5074980;28;19978;-63
2023/12/04 01:36:08;;;;;;;;;;;18.80;51.00;;;;;;5073021;28;19976;-63
2023/12/04 01:38:33;;;;;;;;;;;18.70;50.90;;;;;;5044614;28;19925;-63
2023/12/04 01:40:59;;;;;;;;;;;18.70;50.90;;;;;;5036179;28;20281;-63
2023/12/04 01:43:24;;;;;;;;;;;18.70;50.90;;;;;;5037353;28;19929;-63
2023/12/04 01:45:50;;;;;;;;;;;18.70;50.90;;;;;;5036138;28;19924;-63
2023/12/04 01:48:16;;;;;;;;;;;18.70;50.90;;;;;;5035878;28;20003;-63
2023/12/04 01:50:41;;;;;;;;;;;18.70;50.90;;;;;;5066379;28;20011;-63
2023/12/04 01:53:07;;;;;;;;;;;18.70;50.90;;;;;;5055975;28;20430;-63
2023/12/04 01:55:32;;;;;;;;;;;18.70;51.60;;;;;;5055328;28;19924;-63
2023/12/04 01:57:59;;;;;;;;;;;18.70;50.90;;;;;;5055890;28;20415;-63
2023/12/04 02:00:25;;;;;;;;;;;18.70;50.90;;;;;;5074325;28;19924;-63
2023/12/04 02:02:50;;;;;;;;;;;18.70;50.80;;;;;;5073353;28;20296;-63
2023/12/04 02:05:16;;;;;;;;;;;18.70;50.80;;;;;;5055292;28;20042;-63
2023/12/04 02:07:43;;;;;;;;;;;18.70;50.90;;;;;;5036428;28;19960;-63
2023/12/04 02:10:08;;;;;;;;;;;18.70;51.60;;;;;;5033308;28;20442;-63
2023/12/04 02:12:34;;;;;;;;;;;18.70;50.80;;;;;;5034923;28;20046;-63
2023/12/04 02:14:59;;;;;;;;;;;18.70;50.80;;;;;;5050728;28;19948;-63
2023/12/04 02:17:25;;;;;;;;;;;18.70;50.80;;;;;;5055374;28;19920;-63
2023/12/04 02:19:51;;;;;;;;;;;18.70;50.80;;;;;;5038457;28;20304;-64
2023/12/04 02:22:19;;;;;;;;;;;18.70;50.90;;;;;;5073670;28;19983;-63
2023/12/04 02:24:48;;;;;;;;;;;18.70;50.80;;;;;;5051014;28;19925;-63
2023/12/04 02:27:23;;;;;;;;;;;18.70;50.80;;;;;;5052143;28;20377;-63
2023/12/04 02:30:01;;;;;;;;;;;18.70;50.80;;;;;;5052578;28;19928;-63
2023/12/04 02:32:30;;;;;;;;;;;18.70;50.70;;;;;;5051577;28;19964;-63
2023/12/04 02:34:56;;;;;;;;;;;18.70;50.70;;;;;;5031646;28;19926;-63
2023/12/04 02:37:21;;;;;;;;;;;18.70;50.70;;;;;;5031622;28;19979;-63
2023/12/04 02:39:48;;;;;;;;;;;18.70;50.70;;;;;;5015406;28;19922;-63
2023/12/04 02:42:14;;;;;;;;;;;18.70;50.70;;;;;;5042855;28;19924;-63
2023/12/04 02:44:39;;;;;;;;;;;18.70;50.70;;;;;;5051265;28;20769;-63
2023/12/04 02:47:05;;;;;;;;;;;18.70;50.60;;;;;;5052676;28;19925;-63
2023/12/04 02:49:30;;;;;;;;;;;18.70;50.60;;;;;;5052178;28;19925;-63
2023/12/04 02:51:57;;;;;;;;;;;18.70;50.60;;;;;;5050828;28;20419;-63
2023/12/04 02:54:22;;;;;;;;;;;18.70;50.70;;;;;;5051885;28;19931;-63
2023/12/04 02:56:48;;;;;;;;;;;18.70;50.60;;;;;;5053225;28;20015;-63
2023/12/04 02:59:13;;;;;;;;;;;18.70;50.70;;;;;;5050899;28;19932;-63
2023/12/04 03:01:39;;;;;;;;;;;18.80;50.80;;;;;;5040008;28;19979;-63
2023/12/04 03:04:04;;;;;;;;;;;18.70;50.60;;;;;;5031592;28;19925;-63
2023/12/04 03:06:30;;;;;;;;;;;18.70;50.60;;;;;;5031979;28;19925;-63
2023/12/04 03:08:55;;;;;;;;;;;18.80;50.70;;;;;;5032177;28;19932;-63
2023/12/04 03:11:21;;;;;;;;;;;18.70;50.60;;;;;;5033175;28;20380;-63
2023/12/04 03:13:46;;;;;;;;;;;18.80;50.60;;;;;;5032602;28;20375;-63
2023/12/04 03:16:18;;;;;;;;;;;18.80;50.60;;;;;;5032586;28;20008;-64
2023/12/04 03:18:44;;;;;;;;;;;18.80;50.60;;;;;;5032176;28;20079;-64
2023/12/04 03:21:09;;;;;;;;;;;18.80;50.60;;;;;;5030283;28;20429;-63
2023/12/04 03:23:35;;;;;;;;;;;18.80;50.60;;;;;;5031304;28;19933;-63
2023/12/04 03:26:00;;;;;;;;;;;18.80;50.60;;;;;;5032812;28;20381;-63
2023/12/04 03:28:26;;;;;;;;;;;18.80;50.60;;;;;;5034236;28;19987;-63
2023/12/04 03:30:51;;;;;;;;;;;18.80;50.50;;;;;;5035460;28;19925;-63
2023/12/04 03:33:17;;;;;;;;;;;18.80;50.50;;;;;;5037313;28;20052;-63
2023/12/04 03:35:42;;;;;;;;;;;18.80;50.60;;;;;;5036009;28;20004;-63
2023/12/04 03:38:08;;;;;;;;;;;18.80;50.50;;;;;;5036497;28;19980;-63
2023/12/04 03:40:33;;;;;;;;;;;18.80;50.40;;;;;;5036553;28;19925;-63
2023/12/04 03:42:59;;;;;;;;;;;18.90;50.50;;;;;;5035711;28;20014;-63
2023/12/04 03:45:24;;;;;;;;;;;18.90;50.50;;;;;;5036836;28;19925;-63
2023/12/04 03:47:50;;;;;;;;;;;18.90;50.40;;;;;;5034709;28;19979;-63
2023/12/04 03:50:16;;;;;;;;;;;18.90;50.40;;;;;;5035092;28;19948;-62
2023/12/04 03:52:41;;;;;;;;;;;18.90;50.40;;;;;;5036556;28;19932;-63
2023/12/04 03:55:07;;;;;;;;;;;18.90;50.30;;;;;;5033849;28;20373;-63
2023/12/04 03:57:33;;;;;;;;;;;18.90;50.40;;;;;;5035303;28;19925;-63
2023/12/04 03:59:58;;;;;;;;;;;19.00;50.40;;;;;;5036138;28;20024;-64
2023/12/04 04:02:24;;;;;;;;;;;19.00;50.30;;;;;;5035951;28;19921;-64
2023/12/04 04:04:50;;;;;;;;;;;18.90;50.30;;;;;;5036302;28;19925;-64
2023/12/04 04:07:15;;;;;;;;;;;18.90;50.30;;;;;;5036346;28;19977;-64
2023/12/04 04:09:41;;;;;;;;;;;19.00;50.30;;;;;;5033805;28;19925;-63
2023/12/04 04:12:06;;;;;;;;;;;19.00;50.30;;;;;;5035080;28;19940;-63
2023/12/04 04:14:32;;;;;;;;;;;19.00;50.30;;;;;;5036319;28;19974;-63
2023/12/04 04:16:57;;;;;;;;;;;19.00;50.30;;;;;;5034219;28;19979;-63
2023/12/04 04:19:23;;;;;;;;;;;19.00;50.30;;;;;;5034769;28;20316;-64
2023/12/04 04:21:48;;;;;;;;;;;19.00;50.30;;;;;;5035056;28;19964;-61
2023/12/04 04:24:14;;;;;;;;;;;19.00;50.30;;;;;;5032367;28;20289;-61
2023/12/04 04:26:39;;;;;;;;;;;19.00;50.20;;;;;;5033946;28;19925;-62
2023/12/04 04:29:05;;;;;;;;;;;19.10;50.20;;;;;;5033195;28;20288;-61
2023/12/04 04:31:30;;;;;;;;;;;19.10;50.20;;;;;;5032817;28;19932;-61
2023/12/04 04:33:56;;;;;;;;;;;19.10;50.20;;;;;;5033544;28;19921;-61
2023/12/04 04:36:21;;;;;;;;;;;19.10;50.20;;;;;;5034646;28;19925;-61
2023/12/04 04:38:46;;;;;;;;;;;19.10;50.20;;;;;;5033015;28;19995;-61
2023/12/04 04:41:15;;;;;;;;;;;19.10;50.10;;;;;;5033764;28;20007;-61
2023/12/04 04:43:41;;;;;;;;;;;19.10;50.10;;;;;;5033175;28;20011;-61
2023/12/04 04:46:07;;;;;;;;;;;19.10;50.20;;;;;;5032233;28;20349;-61
2023/12/04 04:48:32;;;;;;;;;;;19.20;50.10;;;;;;5033224;28;19979;-61
2023/12/04 04:50:57;;;;;;;;;;;19.10;50.10;;;;;;5033580;28;19932;-61
2023/12/04 04:53:23;;;;;;;;;;;19.20;50.10;;;;;;5032885;28;19975;-61
2023/12/04 04:55:48;;;;;;;;;;;19.20;50.10;;;;;;5033140;28;19929;-61
2023/12/04 04:58:14;;;;;;;;;;;19.20;50.10;;;;;;5032405;28;19925;-61
2023/12/04 05:00:39;;;;;;;;;;;19.20;50.00;;;;;;5035725;28;20353;-60
2023/12/04 05:03:05;;;;;;;;;;;19.20;50.10;;;;;;5044724;28;19929;-61
2023/12/04 05:05:30;;;;;;;;;;;19.20;50.00;;;;;;5050638;28;19929;-61
2023/12/04 05:07:56;;;;;;;;;;;19.20;50.00;;;;;;5053213;28;20015;-61
2023/12/04 05:10:21;;;;;;;;;;;19.20;50.00;;;;;;5054091;28;19925;-60
2023/12/04 05:12:47;;;;;;;;;;;19.20;50.00;;;;;;5053061;28;19979;-61
2023/12/04 05:15:12;;;;;;;;;;;19.30;50.00;;;;;;5053723;28;19925;-61
2023/12/04 05:17:38;;;;;;;;;;;19.30;50.00;;;;;;5054017;28;20027;-61
2023/12/04 05:20:03;;;;;;;;;;;19.30;50.00;;;;;;5053024;28;20395;-61
2023/12/04 05:22:29;;;;;;;;;;;19.30;49.90;;;;;;5053819;28;19928;-61
2023/12/04 05:24:54;;;;;;;;;;;19.30;50.00;;;;;;5011985;28;1748574;-61
2023/12/04 05:27:20;;;;;;;;;;;19.30;49.90;;;;;;5074121;28;19924;-61
2023/12/04 05:29:46;;;;;;;;;;;19.30;49.90;;;;;;5074668;28;19924;-61
2023/12/04 05:32:12;;;;;;;;;;;19.30;49.90;;;;;;5056323;28;19959;-61
2023/12/04 05:34:38;;;;;;;;;;;19.30;49.90;;;;;;5074003;28;19924;-61
2023/12/04 05:37:03;;;;;;;;;;;19.30;49.90;;;;;;5056433;28;19925;-61
2023/12/04 05:39:29;;;;;;;;;;;19.30;49.90;;;;;;5041603;28;19935;-61
2023/12/04 05:41:55;;;;;;;;;;;19.30;49.90;;;;;;5035487;28;19924;-61
2023/12/04 05:44:20;;;;;;;;;;;19.30;49.90;;;;;;5054716;28;20335;-61
2023/12/04 05:46:45;;;;;;;;;;;19.30;49.90;;;;;;5036833;28;19932;-61
2023/12/04 05:49:11;;;;;;;;;;;19.40;49.90;;;;;;5052798;28;19929;-61
2023/12/04 05:51:36;;;;;;;;;;;19.40;49.90;;;;;;5073290;28;19925;-61
2023/12/04 05:54:02;;;;;;;;;;;19.40;49.80;;;;;;5073439;28;20022;-61
2023/12/04 05:56:27;;;;;;;;;;;19.40;49.80;;;;;;5055585;28;20013;-61
2023/12/04 05:58:53;;;;;;;;;;;19.40;49.80;;;;;;5056066;28;19942;-61
2023/12/04 06:01:18;;;;;;;;;;;19.40;49.80;;;;;;5055875;28;20411;-61
2023/12/04 06:03:44;;;;;;;;;;;19.40;49.80;;;;;;5054064;28;19925;-61
2023/12/04 06:06:09;;;;;;;;;;;19.40;49.80;;;;;;5036213;28;19924;-61
2023/12/04 06:08:35;;;;;;;;;;;19.40;49.80;;;;;;5052440;28;20042;-61
2023/12/04 06:11:00;;;;;;;;;;;19.40;49.70;;;;;;5036214;28;19924;-60
2023/12/04 06:13:26;;;;;;;;;;;19.40;49.70;;;;;;5054097;28;19975;-60
2023/12/04 06:15:52;;;;;;;;;;;19.40;49.80;;;;;;5054354;28;19924;-61
2023/12/04 06:18:17;;;;;;;;;;;19.40;49.80;;;;;;5055499;28;19924;-61
2023/12/04 06:20:43;;;;;;;;;;;19.50;49.70;;;;;;5073327;28;19931;-61
2023/12/04 06:23:08;;;;;;;;;;;19.50;49.70;;;;;;5072458;28;19924;-61
2023/12/04 06:25:34;;;;;;;;;;;19.50;49.70;;;;;;5072775;28;19924;-61
2023/12/04 06:27:59;;;;;;;;;;;19.50;49.70;;;;;;5055740;28;19928;-61
2023/12/04 06:30:26;;;;;;;;;;;19.50;49.70;;;;;;5073000;28;19931;-61
2023/12/04 06:32:51;;;;;;;;;;;19.50;49.70;;;;;;5055276;28;19924;-63
2023/12/04 06:35:17;;;;;;;;;;;19.50;49.70;;;;;;5073414;28;19931;-62
2023/12/04 06:37:43;;;;;;;;;;;19.50;49.70;;;;;;5072542;28;19974;-63
2023/12/04 06:40:11;;;;;;;;;;;19.50;49.60;;;;;;5073153;28;19924;-63
2023/12/04 06:42:36;;;;;;;;;;;19.50;49.70;;;;;;5073428;28;20387;-63
2023/12/04 06:45:02;;;;;;;;;;;19.50;49.60;;;;;;5054355;28;20013;-62
2023/12/04 06:47:28;;;;;;;;;;;19.50;49.60;;;;;;5073551;28;20015;-63
2023/12/04 06:49:53;;;;;;;;;;;19.60;49.60;;;;;;5054955;28;20372;-64
2023/12/04 06:52:19;;;;;;;;;;;19.60;49.60;;;;;;5072587;28;19928;-63
2023/12/04 06:54:44;;;;;;;;;;;19.60;49.60;;;;;;5073172;28;20019;-63
2023/12/04 06:57:10;;;;;;;;;;;19.60;49.60;;;;;;5072945;28;19978;-63
2023/12/04 06:59:35;;;;;;;;;;;19.60;49.60;;;;;;5072577;28;20035;-63
2023/12/04 07:02:01;;;;;;;;;;;19.60;49.50;;;;;;5054832;28;19921;-63
2023/12/04 07:04:27;;;;;;;;;;;19.60;49.60;;;;;;5055478;28;19964;-65
2023/12/04 07:06:52;;;;;;;;;;;19.60;49.60;;;;;;5072050;28;19993;-61
2023/12/04 07:09:18;;;;;;;;;;;19.60;49.60;;;;;;5072869;28;20015;-61
2023/12/04 07:11:43;;;;;;;;;;;19.60;49.60;;;;;;5054715;28;19931;-61
2023/12/04 07:14:09;;;;;;;;;;;19.60;49.60;;;;;;5054925;28;20351;-61
2023/12/04 07:16:41;;;;;;;;;;;19.60;49.60;;;;;;5054306;28;19968;-61
2023/12/04 07:19:07;;;;;;;;;;;19.60;49.60;;;;;;5054108;28;20297;-61
2023/12/04 07:21:33;;;;;;;;;;;19.60;49.60;;;;;;5072833;28;20372;-61
2023/12/04 07:23:58;;;;;;;;;;;19.60;49.60;;;;;;5053721;28;20064;-61
2023/12/04 07:26:24;;;;;;;;;;;19.60;49.50;;;;;;5072107;28;19924;-60
2023/12/04 07:28:49;;;;;;;;;;;19.60;49.50;;;;;;5072953;28;20023;-61
2023/12/04 07:31:15;;;;;;;;;;;19.60;49.50;;;;;;5072577;28;19960;-61
2023/12/04 07:33:40;;;;;;;;;;;19.60;49.60;;;;;;5052636;28;20384;-60
2023/12/04 07:36:06;;;;;;;;;;;19.60;49.60;;;;;;5034446;28;19932;-60
2023/12/04 07:38:31;;;;;;;;;;;19.60;49.60;;;;;;5053017;28;19924;-60
2023/12/04 07:40:57;;;;;;;;;;;19.60;49.60;;;;;;5053911;28;20031;-60
2023/12/04 07:43:22;;;;;;;;;;;19.60;49.70;;;;;;5052138;28;19924;-60
2023/12/04 07:45:48;;;;;;;;;;;19.60;49.80;;;;;;5072883;28;19924;-60
2023/12/04 07:48:13;;;;;;;;;;;19.70;49.80;;;;;;5071710;28;19925;-60
2023/12/04 07:50:39;;;;;;;;;;;19.70;50.00;;;;;;5054691;28;19928;-60
2023/12/04 07:53:05;;;;;;;;;;;19.70;50.00;;;;;;5072438;28;19925;-60
2023/12/04 07:55:30;;;;;;;;;;;19.70;50.00;;;;;;5071503;28;19931;-60
2023/12/04 07:57:56;;;;;;;;;;;19.70;50.00;;;;;;5054352;28;20027;-60
2023/12/04 08:00:26;;;;;;;;;;;19.70;50.00;;;;;;5072737;28;19993;-61
2023/12/04 08:02:51;;;;;;;;;;;19.70;50.10;;;;;;5071186;28;19925;-60
2023/12/04 08:05:17;;;;;;;;;;;19.70;50.20;;;;;;5042270;28;20015;-67
2023/12/04 08:07:42;;;;;;;;;;;19.80;50.20;;;;;;5034529;28;19951;-61
2023/12/04 08:10:08;;;;;;;;;;;19.80;50.20;;;;;;5051269;28;20376;-60
2023/12/04 08:12:34;;;;;;;;;;;19.80;50.20;;;;;;5052545;28;20454;-60
2023/12/04 08:14:59;;;;;;;;;;;19.80;50.20;;;;;;5054609;28;19928;-59
2023/12/04 08:17:25;;;;;;;;;;;19.80;50.20;;;;;;5038714;28;19924;-60
2023/12/04 08:19:50;;;;;;;;;;;19.80;50.30;;;;;;5055927;28;19924;-60
2023/12/04 08:22:16;;;;;;;;;;;19.80;50.30;;;;;;5055403;28;19936;-61
2023/12/04 08:24:41;;;;;;;;;;;19.80;50.30;;;;;;5039406;28;19961;-59
2023/12/04 08:27:07;;;;;;;;;;;19.80;50.20;;;;;;5038268;28;19932;-59
2023/12/04 08:29:33;;;;;;;;;;;19.80;50.20;;;;;;5040587;28;19932;-60
2023/12/04 08:31:58;;;;;;;;;;;19.80;50.10;;;;;;5039337;28;19986;-60
2023/12/04 08:34:24;;;;;;;;;;;19.80;50.20;;;;;;5043889;28;20011;-60
2023/12/04 08:36:50;;;;;;;;;;;19.80;50.50;;;;;;5049791;28;19951;-61
2023/12/04 08:39:15;;;;;;;;;;;19.90;50.60;;;;;;5054412;28;19925;-61
2023/12/04 08:41:40;;;;;;;;;;;19.90;50.70;;;;;;5038547;28;19933;-60
2023/12/04 08:44:06;;;;;;;;;;;19.90;50.80;;;;;;5037468;28;19995;-60
2023/12/04 08:46:31;;;;;;;;;;;19.90;50.70;;;;;;5043678;28;20027;-60
2023/12/04 08:48:57;;;;;;;;;;;19.90;50.80;;;;;;5046719;28;19933;-60
2023/12/04 08:51:24;;;;;;;;;;;19.90;50.60;;;;;;5044359;28;20319;-60
2023/12/04 08:53:49;;;;;;;;;;;19.90;50.50;;;;;;5060026;28;19925;-60
2023/12/04 08:56:15;;;;;;;;;;;19.90;50.50;;;;;;5043140;28;20343;-60
2023/12/04 08:58:40;;;;;;;;;;;19.90;50.40;;;;;;5043052;28;20339;-60
2023/12/04 09:01:06;;;;;;;;;;;19.90;50.40;;;;;;5044347;28;19932;-60
2023/12/04 09:03:31;;;;;;;;;;;19.90;50.40;;;;;;5043564;28;20337;-60
2023/12/04 09:05:57;;;;;;;;;;;19.90;50.30;;;;;;5049183;28;19932;-59
2023/12/04 09:08:23;;;;;;;;;;;20.00;50.40;;;;;;5054260;28;20003;-59
2023/12/04 09:10:48;;;;;;;;;;;19.90;50.30;;;;;;5053497;28;19924;-59
2023/12/04 09:13:14;;;;;;;;;;;20.00;50.30;;;;;;5052732;28;19924;-60
2023/12/04 09:15:39;;;;;;;;;;;19.90;50.30;;;;;;5055301;28;20293;-60
2023/12/04 09:18:05;;;;;;;;;;;20.00;50.30;;;;;;5054942;28;20364;-59
2023/12/04 09:20:30;;;;;;;;;;;19.90;50.20;;;;;;5054324;28;20415;-60
2023/12/04 09:22:56;;;;;;;;;;;20.00;50.20;;;;;;5053237;28;19932;-60
2023/12/04 09:25:21;;;;;;;;;;;20.00;50.30;;;;;;5051574;28;19951;-59
2023/12/04 09:27:47;;;;;;;;;;;20.00;50.30;;;;;;5054151;28;19925;-60
2023/12/04 09:30:13;;;;;;;;;;;20.00;50.30;;;;;;5054615;28;20486;-60
2023/12/04 09:32:39;;;;;;;;;;;20.00;50.30;;;;;;5052348;28;20432;-59
2023/12/04 09:35:05;;;;;;;;;;;20.00;50.30;;;;;;5054615;28;19976;-59
2023/12/04 09:37:30;;;;;;;;;;;20.00;50.40;;;;;;5054757;28;20361;-60
2023/12/04 09:39:55;;;;;;;;;;;20.00;50.40;;;;;;5052242;28;19929;-60
2023/12/04 09:42:21;;;;;;;;;;;20.00;50.40;;;;;;5050793;28;19960;-60
2023/12/04 09:44:47;;;;;;;;;;;20.00;50.40;;;;;;5040252;28;19979;-60
2023/12/04 09:47:13;;;;;;;;;;;20.00;50.40;;;;;;5032282;28;19979;-60
2023/12/04 09:49:39;;;;;;;;;;;20.00;50.40;;;;;;5033611;28;19925;-61
2023/12/04 09:52:04;;;;;;;;;;;20.00;50.40;;;;;;5033133;28;19925;-60
2023/12/04 09:54:30;;;;;;;;;;;20.10;50.40;;;;;;5033339;28;19932;-60
2023/12/04 09:56:55;;;;;;;;;;;20.10;50.40;;;;;;5033698;28;20443;-60
2023/12/04 09:59:21;;;;;;;;;;;20.10;50.30;;;;;;5034604;28;19964;-60
2023/12/04 10:01:47;;;;;;;;;;;20.10;50.30;;;;;;5016038;28;19921;-60
2023/12/04 10:04:12;;;;;;;;;;;20.10;50.30;;;;;;5032828;28;19932;-60
2023/12/04 10:06:38;;;;;;;;;;;20.10;50.30;;;;;;5033216;28;19926;-60
2023/12/04 10:09:04;;;;;;;;;;;20.10;50.20;;;;;;5031847;28;19970;-60
2023/12/04 10:11:30;;;;;;;;;;;20.10;50.20;;;;;;5033051;28;20301;-60
2023/12/04 10:13:55;;;;;;;;;;;20.10;50.10;;;;;;5033801;28;20404;-60
2023/12/04 10:16:34;;;;;;;;;;;20.10;50.10;;;;;;5033034;28;19925;-60
2023/12/04 10:19:13;;;;;;;;;;;20.10;50.10;;;;;;5041650;28;19971;-60
2023/12/04 10:21:39;;;;;;;;;;;20.10;50.10;;;;;;5051269;28;20452;-60
2023/12/04 10:24:04;;;;;;;;;;;20.10;50.10;;;;;;5051652;28;19936;-59
2023/12/04 10:26:30;;;;;;;;;;;20.10;50.10;;;;;;5053972;28;19928;-61
2023/12/04 10:29:00;;;;;;;;;;;20.10;49.80;;;;;;5044531;28;19955;-59
2023/12/04 10:31:25;;;;;;;;;;;20.10;49.20;;;;;;5040159;28;19926;-59
2023/12/04 10:33:51;;;;;;;;;;;20.10;49.50;;;;;;5033092;28;20067;-60
2023/12/04 10:36:17;;;;;;;;;;;20.10;49.60;;;;;;5031310;28;19925;-72
2023/12/04 10:38:43;;;;;;;;;;;20.10;49.30;;;;;;5032291;28;19925;-59
2023/12/04 10:41:12;;;;;;;;;;;20.10;49.40;;;;;;5033266;28;19932;-59
2023/12/04 10:43:37;;;;;;;;;;;20.10;49.40;;;;;;5032645;28;19929;-59
2023/12/04 10:46:03;;;;;;;;;;;20.10;49.60;;;;;;5031890;28;19973;-59
2023/12/04 10:48:28;;;;;;;;;;;20.10;49.60;;;;;;5033586;28;19925;-59
2023/12/04 10:50:54;;;;;;;;;;;20.10;49.60;;;;;;5014613;28;19929;-59
2023/12/04 10:53:19;;;;;;;;;;;20.10;49.60;;;;;;5032186;28;19929;-59
2023/12/04 10:55:45;;;;;;;;;;;20.10;49.70;;;;;;5033112;28;19927;-59
2023/12/04 10:58:12;;;;;;;;;;;20.10;49.60;;;;;;5032415;28;20709;-59
2023/12/04 11:00:41;;;;;;;;;;;20.10;49.40;;;;;;5033166;28;19925;-59
2023/12/04 11:03:08;;;;;;;;;;;20.10;49.20;;;;;;5035626;28;20024;-59
2023/12/04 11:05:37;;;;;;;;;;;20.10;49.10;;;;;;5036476;28;19969;-59
2023/12/04 11:08:04;;;;;;;;;;;20.10;49.00;;;;;;5035584;28;20329;-59
2023/12/04 11:10:30;;;;;;;;;;;20.10;48.90;;;;;;5030382;28;20015;-59
2023/12/04 11:12:58;;;;;;;;;;;20.10;49.20;;;;;;5034497;28;20015;-60
2023/12/04 11:15:25;;;;;;;;;;;20.10;49.50;;;;;;5036295;28;19929;-60
2023/12/04 11:17:51;;;;;;;;;;;20.10;49.80;;;;;;5032190;28;20373;-61
2023/12/04 11:20:17;;;;;;;;;;;20.10;49.90;;;;;;5036463;28;19925;-60
2023/12/04 11:22:43;;;;;;;;;;;20.10;50.00;;;;;;5054506;28;19932;-61
2023/12/04 11:25:08;;;;;;;;;;;20.10;50.00;;;;;;5061038;28;19924;-60
2023/12/04 11:27:34;;;;;;;;;;;20.10;50.00;;;;;;5062995;28;19925;-60
2023/12/04 11:30:00;;;;;;;;;;;20.10;50.10;;;;;;5058366;28;19929;-60
2023/12/04 11:32:27;;;;;;;;;;;20.10;50.10;;;;;;5037111;28;19932;-60
2023/12/04 11:34:56;;;;;;;;;;;20.10;50.10;;;;;;5034317;28;19931;-59
2023/12/04 11:37:23;;;;;;;;;;;20.10;50.20;;;;;;5034368;28;20050;-59
2023/12/04 11:39:52;;;;;;;;;;;20.10;50.10;;;;;;5033952;28;19928;-60
2023/12/04 11:42:23;;;;;;;;;;;20.10;50.10;;;;;;5033465;28;19929;-60
2023/12/04 11:44:49;;;;;;;;;;;20.10;50.00;;;;;;5052201;28;19920;-59
2023/12/04 11:47:15;;;;;;;;;;;20.10;50.00;;;;;;5032450;28;19925;-59
2023/12/04 11:49:40;;;;;;;;;;;20.10;50.00;;;;;;5021631;28;19932;-60
2023/12/04 11:52:06;;;;;;;;;;;20.10;50.00;;;;;;5056327;28;19925;-60
2023/12/04 11:54:50;;;;;;;;;;;20.10;50.00;;;;;;5055898;28;19979;-60
2023/12/04 11:57:15;;;;;;;;;;;20.10;50.00;;;;;;5058615;28;19931;-60
2023/12/04 11:59:41;;;;;;;;;;;20.10;50.00;;;;;;5045264;28;19925;-60
2023/12/04 12:02:10;;;;;;;;;;;20.10;50.20;;;;;;5055852;28;19970;-60
2023/12/04 12:04:36;;;;;;;;;;;20.10;50.20;;;;;;5076391;28;20023;-60
2023/12/04 12:07:02;;;;;;;;;;;20.10;50.20;;;;;;5075316;28;20033;-60
2023/12/04 12:09:28;;;;;;;;;;;20.10;50.30;;;;;;5057575;28;20438;-60
2023/12/04 12:11:53;;;;;;;;;;;20.10;50.30;;;;;;5075806;28;19924;-60
2023/12/04 12:14:20;;;;;;;;;;;20.10;50.40;;;;;;5075475;28;20356;-61
2023/12/04 12:16:46;;;;;;;;;;;20.10;50.50;;;;;;5055237;28;19929;-61
2023/12/04 12:19:11;;;;;;;;;;;20.10;50.40;;;;;;5038122;28;19935;-62
2023/12/04 12:21:37;;;;;;;;;;;20.10;50.50;;;;;;5042238;28;20356;-61
2023/12/04 12:24:03;;;;;;;;;;;20.10;50.50;;;;;;5046810;28;19999;-60
2023/12/04 12:26:29;;;;;;;;;;;20.10;50.50;;;;;;5027629;28;19932;-61
2023/12/04 12:28:55;;;;;;;;;;;20.20;50.70;;;;;;5031323;28;20354;-61
2023/12/04 12:31:20;;;;;;;;;;;20.10;50.70;;;;;;5064249;28;19936;-61
2023/12/04 12:33:46;;;;;;;;;;;20.10;50.80;;;;;;5045248;28;20300;-62
2023/12/04 12:36:11;;;;;;;;;;;20.10;50.80;;;;;;5062088;28;19928;-61
2023/12/04 12:38:37;;;;;;;;;;;20.10;50.90;;;;;;5046927;28;20288;-61
2023/12/04 12:41:07;;;;;;;;;;;20.10;50.90;;;;;;5044253;28;19974;-62
2023/12/04 12:43:33;;;;;;;;;;;20.20;51.00;;;;;;5065325;28;20001;-61
2023/12/04 12:45:59;;;;;;;;;;;20.20;51.00;;;;;;5029277;28;19924;-62
2023/12/04 12:48:24;;;;;;;;;;;20.20;51.10;;;;;;5046591;28;19932;-62
2023/12/04 12:50:50;;;;;;;;;;;20.20;51.10;;;;;;5047613;28;19932;-62
2023/12/04 12:53:17;;;;;;;;;;;20.20;51.10;;;;;;5057440;28;19925;-62
2023/12/04 12:55:42;;;;;;;;;;;20.20;51.10;;;;;;5075146;28;19924;-61
2023/12/04 12:58:13;;;;;;;;;;;20.20;51.20;;;;;;5070627;28;19986;-61
2023/12/04 13:00:39;;;;;;;;;;;20.20;51.20;;;;;;5043665;28;20379;-62
2023/12/04 13:03:04;;;;;;;;;;;20.20;51.30;;;;;;5046657;28;19956;-62
2023/12/04 13:05:30;;;;;;;;;;;20.20;51.30;;;;;;5058533;28;20529;-72
2023/12/04 13:07:55;;;;;;;;;;;20.20;51.30;;;;;;5054116;28;19924;-61
2023/12/04 13:10:22;;;;;;;;;;;20.20;51.30;;;;;;5055283;28;19931;-60
2023/12/04 13:12:52;;;;;;;;;;;20.20;51.20;;;;;;5073858;28;19998;-60
2023/12/04 13:15:17;;;;;;;;;;;20.20;51.10;;;;;;5056057;28;19924;-60
2023/12/04 13:17:43;;;;;;;;;;;20.20;51.10;;;;;;5073884;28;19925;-60
2023/12/04 13:20:13;;;;;;;;;;;20.20;51.20;;;;;;5055767;28;20336;-60
2023/12/04 13:22:38;;;;;;;;;;;20.20;51.10;;;;;;5074848;28;19924;-61
2023/12/04 13:25:07;;;;;;;;;;;20.20;51.20;;;;;;5074100;28;19931;-60
2023/12/04 13:27:33;;;;;;;;;;;20.20;51.20;;;;;;5074783;28;19932;-60
2023/12/04 13:29:58;;;;;;;;;;;20.20;51.30;;;;;;5074483;28;19925;-61
2023/12/04 13:32:24;;;;;;;;;;;20.20;51.30;;;;;;5074017;28;19924;-62
2023/12/04 13:34:49;;;;;;;;;;;20.20;51.30;;;;;;5074759;28;19924;-61
2023/12/04 13:37:15;;;;;;;;;;;20.20;51.40;;;;;;5074616;28;20011;-61
2023/12/04 13:39:47;;;;;;;;;;;20.20;51.40;;;;;;5056067;28;19934;-61
2023/12/04 13:44:57;;;;;;;;;;;20.20;51.50;;;;;;5070618;28;19932;-61
2023/12/04 13:47:23;;;;;;;;;;;20.20;51.50;;;;;;5073672;28;19920;-62
2023/12/04 13:49:49;;;;;;;;;;;20.20;51.60;;;;;;5069471;28;19956;-61
2023/12/04 13:52:14;;;;;;;;;;;20.20;51.60;;;;;;5057813;28;19952;-62
2023/12/04 13:54:48;;;;;;;;;;;20.20;51.60;;;;;;5047762;28;19936;-61
2023/12/04 13:57:33;;;;;;;;;;;20.20;51.60;;;;;;5037540;28;19925;-61
2023/12/04 13:59:59;;;;;;;;;;;20.20;51.60;;;;;;5049845;28;19924;-60
2023/12/04 14:02:25;;;;;;;;;;;20.20;51.60;;;;;;5072893;28;19924;-61
2023/12/04 14:04:51;;;;;;;;;;;20.20;51.70;;;;;;5055855;28;19935;-61
2023/12/04 14:07:17;;;;;;;;;;;20.20;51.70;;;;;;5073166;28;20415;-61
2023/12/04 14:09:44;;;;;;;;;;;20.20;51.70;;;;;;5055926;28;19932;-61
2023/12/04 14:12:10;;;;;;;;;;;20.20;51.80;;;;;;5046355;28;19925;-60